createdAt,value
2022-09-16T00:01:36.158Z,100.00
2022-09-16T00:04:05.118Z,100.00
2022-09-16T00:06:34.536Z,100.00
2022-09-16T00:09:03.574Z,100.00
2022-09-16T00:11:35.126Z,100.00
2022-09-16T00:14:06.126Z,100.00
2022-09-16T00:16:35.148Z,100.00
2022-09-16T00:19:04.399Z,100.00
2022-09-16T00:21:33.834Z,100.00
2022-09-16T00:24:03.088Z,100.00
2022-09-16T00:26:32.128Z,100.00
2022-09-16T00:29:01.246Z,100.00
2022-09-16T00:31:31.619Z,100.00
2022-09-16T00:34:00.716Z,100.00
2022-09-16T00:36:30.304Z,100.00
2022-09-16T00:38:59.504Z,100.00
2022-09-16T00:41:32.861Z,100.00
2022-09-16T00:44:04.389Z,100.00
2022-09-16T00:46:40.179Z,100.00
2022-09-16T00:49:14.473Z,100.00
2022-09-16T00:51:45.465Z,100.00
2022-09-16T00:54:14.659Z,100.00
2022-09-16T00:56:48.335Z,100.00
2022-09-16T00:59:20.669Z,100.00
2022-09-16T01:01:52.106Z,100.00
2022-09-16T01:04:25.872Z,100.00
2022-09-16T01:06:55.193Z,100.00
2022-09-16T01:09:26.695Z,100.00
2022-09-16T01:11:55.752Z,100.00
2022-09-16T01:14:45.317Z,100.00
2022-09-16T01:17:23.510Z,100.00
2022-09-16T01:20:26.273Z,100.00
2022-09-16T01:23:21.058Z,100.00
2022-09-16T01:26:06.545Z,100.00
2022-09-16T01:29:02.992Z,100.00
2022-09-16T01:31:41.192Z,100.00
2022-09-16T01:34:22.139Z,100.00
2022-09-16T01:36:59.049Z,100.00
2022-09-16T01:39:35.727Z,100.00
2022-09-16T01:42:17.799Z,100.00
2022-09-16T01:44:53.387Z,100.00
2022-09-16T01:47:31.894Z,100.00
2022-09-16T01:50:08.704Z,100.00
2022-09-16T01:52:46.370Z,100.00
2022-09-16T01:55:22.761Z,100.00
2022-09-16T01:57:57.339Z,100.00
2022-09-16T02:00:26.526Z,100.00
2022-09-16T02:03:02.094Z,100.00
2022-09-16T02:05:35.437Z,100.00
2022-09-16T02:08:09.407Z,100.00
2022-09-16T02:10:42.693Z,100.00
2022-09-16T02:13:18.431Z,100.00
2022-09-16T02:15:50.736Z,100.00
2022-09-16T02:18:25.796Z,100.00
2022-09-16T02:20:57.941Z,100.00
2022-09-16T02:23:33.308Z,100.00
2022-09-16T02:26:06.082Z,100.00
2022-09-16T02:28:40.345Z,100.00
2022-09-16T02:31:10.782Z,100.00
2022-09-16T02:33:50.321Z,100.00
2022-09-16T02:36:22.661Z,100.00
2022-09-16T02:38:57.894Z,100.00
2022-09-16T02:41:27.167Z,100.00
2022-09-16T02:43:56.363Z,100.00
2022-09-16T02:46:33.441Z,100.00
2022-09-16T02:49:11.889Z,100.00
2022-09-16T02:51:52.507Z,100.00
2022-09-16T02:54:27.251Z,100.00
2022-09-16T02:56:58.038Z,100.00
2022-09-16T02:59:27.334Z,100.00
2022-09-16T03:01:57.278Z,100.00
2022-09-16T03:04:27.613Z,100.00
2022-09-16T03:06:56.590Z,100.00
2022-09-16T03:09:26.017Z,100.00
2022-09-16T03:12:20.556Z,100.00
2022-09-16T03:15:05.952Z,100.00
2022-09-16T03:17:50.318Z,100.00
2022-09-16T03:20:27.783Z,100.00
2022-09-16T03:23:04.503Z,100.00
2022-09-16T03:25:47.648Z,100.00
2022-09-16T03:28:21.416Z,100.00
2022-09-16T03:30:57.787Z,100.00
2022-09-16T03:33:33.522Z,100.00
2022-09-16T03:36:06.608Z,100.00
2022-09-16T03:38:38.067Z,100.00
2022-09-16T03:41:09.293Z,100.00
2022-09-16T03:43:38.287Z,100.00
2022-09-16T03:46:16.671Z,100.00
2022-09-16T03:48:45.648Z,100.00
2022-09-16T03:51:16.635Z,100.00
2022-09-16T03:53:46.050Z,100.00
2022-09-16T03:56:15.230Z,100.00
2022-09-16T03:58:44.314Z,100.00
2022-09-16T04:01:14.190Z,100.00
2022-09-16T04:03:43.596Z,100.00
2022-09-16T04:06:12.528Z,100.00
2022-09-16T04:08:44.393Z,100.00
2022-09-16T04:11:13.475Z,100.00
2022-09-16T04:13:42.455Z,100.00
2022-09-16T04:16:11.401Z,100.00
2022-09-16T04:18:40.439Z,100.00
2022-09-16T04:21:10.687Z,100.00
2022-09-16T04:23:39.607Z,100.00
2022-09-16T04:26:11.325Z,100.00
2022-09-16T04:28:40.243Z,100.00
2022-09-16T04:31:12.858Z,100.00
2022-09-16T04:33:42.700Z,100.00
2022-09-16T04:36:13.519Z,100.00
2022-09-16T04:38:44.223Z,100.00
2022-09-16T04:41:17.703Z,100.00
2022-09-16T04:43:46.803Z,100.00
2022-09-16T04:46:16.035Z,100.00
2022-09-16T04:48:47.645Z,100.00
2022-09-16T04:51:16.974Z,100.00
2022-09-16T04:53:46.595Z,100.00
2022-09-16T04:56:20.029Z,100.00
2022-09-16T04:58:50.709Z,100.00
2022-09-16T05:01:21.722Z,100.00
2022-09-16T05:03:53.171Z,100.00
2022-09-16T05:06:24.029Z,100.00
2022-09-16T05:08:54.672Z,100.00
2022-09-16T05:11:26.823Z,100.00
2022-09-16T05:13:56.632Z,100.00
2022-09-16T05:16:25.655Z,100.00
2022-09-16T05:18:57.325Z,100.00
2022-09-16T05:21:28.645Z,100.00
2022-09-16T05:24:02.288Z,100.00
2022-09-16T05:26:35.356Z,100.00
2022-09-16T05:29:08.705Z,100.00
2022-09-16T05:31:40.212Z,100.00
2022-09-16T05:34:14.577Z,100.00
2022-09-16T05:36:47.465Z,100.00
2022-09-16T05:39:24.538Z,100.00
2022-09-16T05:41:59.020Z,100.00
2022-09-16T05:44:30.703Z,100.00
2022-09-16T05:47:01.040Z,100.00
2022-09-16T05:49:31.442Z,100.00
2022-09-16T05:52:01.604Z,100.00
2022-09-16T05:54:31.509Z,100.00
2022-09-16T05:57:07.227Z,100.00
2022-09-16T05:59:38.055Z,100.00
2022-09-16T06:02:07.509Z,100.00
2022-09-16T06:04:36.928Z,100.00
2022-09-16T06:07:07.249Z,100.00
2022-09-16T06:09:36.824Z,100.00
2022-09-16T06:12:07.545Z,100.00
2022-09-16T06:14:36.791Z,100.00
2022-09-16T06:17:06.212Z,100.00
2022-09-16T06:19:35.195Z,100.00
2022-09-16T06:22:04.708Z,100.00
2022-09-16T06:24:33.632Z,100.00
2022-09-16T06:27:02.753Z,100.00
2022-09-16T06:29:33.109Z,100.00
2022-09-16T06:32:02.317Z,100.00
2022-09-16T06:34:31.622Z,100.00
2022-09-16T06:37:00.548Z,100.00
2022-09-16T06:39:29.469Z,100.00
2022-09-16T06:41:58.392Z,100.00
2022-09-16T06:44:43.465Z,100.00
2022-09-16T06:47:12.538Z,100.00
2022-09-16T06:49:41.895Z,100.00
2022-09-16T06:52:11.847Z,100.00
2022-09-16T06:54:40.792Z,100.00
2022-09-16T06:57:12.284Z,100.00
2022-09-16T06:59:42.974Z,100.00
2022-09-16T07:02:12.749Z,100.00
2022-09-16T07:04:41.779Z,100.00
2022-09-16T07:07:11.103Z,97.89
2022-09-16T07:09:40.317Z,95.23
2022-09-16T07:12:09.679Z,94.61
2022-09-16T07:14:38.701Z,94.02
2022-09-16T07:17:09.407Z,92.22
2022-09-16T07:19:38.662Z,90.63
2022-09-16T07:22:07.598Z,89.82
2022-09-16T07:24:36.573Z,92.24
2022-09-16T07:27:47.543Z,87.31
2022-09-16T07:30:16.798Z,92.06
2022-09-16T07:32:47.079Z,95.41
2022-09-16T07:35:16.329Z,96.93
2022-09-16T07:37:45.430Z,96.67
2022-09-16T07:40:14.694Z,95.08
2022-09-16T07:42:44.086Z,94.06
2022-09-16T07:45:13.169Z,91.23
2022-09-16T07:47:42.190Z,91.31
2022-09-16T07:50:12.721Z,90.50
2022-09-16T07:52:41.724Z,89.04
2022-09-16T07:55:12.230Z,88.18
2022-09-16T07:57:41.459Z,88.11
2022-09-16T08:00:11.947Z,88.15
2022-09-16T08:02:40.998Z,89.77
2022-09-16T08:05:13.231Z,86.84
2022-09-16T08:07:42.159Z,84.38
2022-09-16T08:10:11.429Z,85.09
2022-09-16T08:12:40.414Z,83.00
2022-09-16T08:15:10.879Z,82.36
2022-09-16T08:17:39.945Z,81.65
2022-09-16T08:20:09.337Z,79.92
2022-09-16T08:22:39.702Z,80.25
2022-09-16T08:25:09.400Z,84.42
2022-09-16T08:27:38.859Z,86.35
2022-09-16T08:30:09.248Z,85.00
2022-09-16T08:32:38.660Z,85.45
2022-09-16T08:35:19.168Z,87.08
2022-09-16T08:38:01.036Z,86.26
2022-09-16T08:40:38.434Z,84.35
2022-09-16T08:43:15.045Z,83.40
2022-09-16T08:45:54.190Z,80.34
2022-09-16T08:48:34.736Z,79.03
2022-09-16T08:51:06.099Z,81.77
2022-09-16T08:53:43.042Z,84.23
2022-09-16T08:56:15.580Z,85.03
2022-09-16T08:58:48.827Z,87.69
2022-09-16T09:01:24.368Z,88.47
2022-09-16T09:03:54.148Z,89.39
2022-09-16T09:06:37.446Z,89.21
2022-09-16T09:09:22.507Z,86.01
2022-09-16T09:11:58.823Z,85.02
2022-09-16T09:14:39.315Z,82.13
2022-09-16T09:17:14.216Z,79.46
2022-09-16T09:19:58.234Z,79.46
2022-09-16T09:22:39.780Z,82.07
2022-09-16T09:25:22.963Z,85.67
2022-09-16T09:28:04.464Z,87.18
2022-09-16T09:30:35.603Z,84.81
2022-09-16T09:33:44.273Z,82.34
2022-09-16T09:36:34.667Z,80.34
2022-09-16T09:39:30.010Z,75.24
2022-09-16T09:42:08.783Z,75.12
2022-09-16T09:44:53.905Z,75.83
2022-09-16T09:47:28.556Z,71.27
2022-09-16T09:49:59.838Z,72.62
2022-09-16T09:52:38.556Z,72.62
2022-09-16T09:55:19.511Z,70.61
2022-09-16T09:58:02.456Z,69.80
2022-09-16T10:00:31.448Z,69.99
2022-09-16T10:03:07.752Z,68.88
2022-09-16T10:05:36.825Z,70.13
2022-09-16T10:08:16.406Z,68.82
2022-09-16T10:10:50.599Z,70.49
2022-09-16T10:13:21.716Z,71.58
2022-09-16T10:15:55.642Z,65.78
2022-09-16T10:18:29.653Z,67.08
2022-09-16T10:21:05.596Z,62.28
2022-09-16T10:23:36.255Z,64.04
2022-09-16T10:26:21.672Z,65.15
2022-09-16T10:29:00.638Z,64.01
2022-09-16T10:31:35.851Z,64.43
2022-09-16T10:34:06.625Z,66.56
2022-09-16T10:36:36.752Z,65.50
2022-09-16T10:39:06.888Z,69.07
2022-09-16T10:41:42.513Z,65.65
2022-09-16T10:44:21.579Z,69.71
2022-09-16T10:46:57.229Z,66.83
2022-09-16T10:49:35.023Z,65.95
2022-09-16T10:52:16.571Z,63.79
2022-09-16T10:54:46.227Z,60.57
2022-09-16T10:57:28.737Z,63.52
2022-09-16T11:00:02.801Z,62.88
2022-09-16T11:02:53.646Z,62.16
2022-09-16T11:05:31.293Z,63.66
2022-09-16T11:08:10.930Z,67.48
2022-09-16T11:10:49.762Z,73.83
2022-09-16T11:13:39.459Z,79.27
2022-09-16T11:16:23.860Z,80.70
2022-09-16T11:19:02.640Z,73.10
2022-09-16T11:22:00.787Z,77.03
2022-09-16T11:24:56.658Z,75.34
2022-09-16T11:27:39.113Z,74.40
2022-09-16T11:30:13.511Z,73.37
2022-09-16T11:33:03.550Z,76.64
2022-09-16T11:35:59.683Z,79.15
2022-09-16T11:38:42.439Z,76.66
2022-09-16T11:41:21.574Z,75.56
2022-09-16T11:44:04.591Z,72.03
2022-09-16T11:46:42.662Z,70.78
2022-09-16T11:49:43.774Z,69.37
2022-09-16T11:52:32.931Z,69.63
2022-09-16T11:55:18.349Z,69.75
2022-09-16T11:57:53.479Z,67.44
2022-09-16T12:00:22.512Z,65.13
2022-09-16T12:02:58.680Z,66.85
2022-09-16T12:05:34.541Z,65.42
2022-09-16T12:08:11.734Z,68.06
2022-09-16T12:10:45.765Z,69.37
2022-09-16T12:13:18.237Z,72.18
2022-09-16T12:15:51.814Z,74.55
2022-09-16T12:18:25.871Z,79.48
2022-09-16T12:21:06.647Z,86.75
2022-09-16T12:23:41.892Z,93.48
2022-09-16T12:26:14.282Z,92.20
2022-09-16T12:28:52.291Z,92.62
2022-09-16T12:31:28.103Z,92.01
2022-09-16T12:34:02.719Z,87.67
2022-09-16T12:36:36.308Z,84.75
2022-09-16T12:39:05.475Z,81.31
2022-09-16T12:41:57.547Z,81.25
2022-09-16T12:44:48.489Z,81.47
2022-09-16T12:47:45.439Z,78.25
2022-09-16T12:50:44.130Z,79.29
2022-09-16T12:53:49.400Z,75.46
2022-09-16T12:56:33.421Z,78.46
2022-09-16T12:59:20.825Z,82.01
2022-09-16T13:01:59.017Z,88.27
2022-09-16T13:04:33.483Z,91.91
2022-09-16T13:07:02.980Z,95.44
2022-09-16T13:09:38.362Z,97.81
2022-09-16T13:12:39.301Z,95.07
2022-09-16T13:15:24.198Z,92.54
2022-09-16T13:17:53.718Z,89.98
2022-09-16T13:20:28.484Z,86.93
2022-09-16T13:23:08.731Z,85.28
2022-09-16T13:25:49.315Z,89.38
2022-09-16T13:28:28.334Z,87.23
2022-09-16T13:30:57.451Z,89.48
2022-09-16T13:33:29.627Z,89.06
2022-09-16T13:36:32.789Z,88.57
2022-09-16T13:39:03.843Z,89.78
2022-09-16T13:41:39.842Z,90.30
2022-09-16T13:44:28.305Z,89.06
2022-09-16T13:47:08.378Z,91.88
2022-09-16T13:49:42.613Z,90.18
2022-09-16T13:52:13.419Z,95.27
2022-09-16T13:55:08.980Z,93.55
2022-09-16T13:58:00.879Z,94.85
2022-09-16T14:00:37.633Z,96.21
2022-09-16T14:03:32.528Z,97.21
2022-09-16T14:06:25.778Z,97.46
2022-09-16T14:09:03.569Z,98.67
2022-09-16T14:11:39.677Z,99.02
2022-09-16T14:14:36.175Z,100.00
2022-09-16T14:17:14.413Z,100.00
2022-09-16T14:19:46.858Z,100.00
2022-09-16T14:22:18.414Z,100.00
2022-09-16T14:24:53.010Z,100.00
2022-09-16T14:27:34.031Z,100.00
2022-09-16T14:30:07.488Z,100.00
2022-09-16T14:32:38.558Z,100.00
2022-09-16T14:35:13.451Z,100.00
2022-09-16T14:37:46.234Z,100.00
2022-09-16T14:40:18.879Z,100.00
2022-09-16T14:42:52.467Z,100.00
2022-09-16T14:45:23.372Z,100.00
2022-09-16T14:47:55.836Z,100.00
2022-09-16T14:50:28.266Z,100.00
2022-09-16T14:52:59.269Z,100.00
2022-09-16T14:55:31.042Z,100.00
2022-09-16T14:58:00.911Z,100.00
2022-09-16T15:00:39.094Z,100.00
2022-09-16T15:03:15.600Z,100.00
2022-09-16T15:05:47.406Z,100.00
2022-09-16T15:08:20.604Z,100.00
2022-09-16T15:10:52.921Z,100.00
2022-09-16T15:13:25.423Z,100.00
2022-09-16T15:16:00.225Z,100.00
2022-09-16T15:18:32.707Z,100.00
2022-09-16T15:21:08.453Z,100.00
2022-09-16T15:23:39.745Z,100.00
2022-09-16T15:26:17.843Z,100.00
2022-09-16T15:28:58.858Z,100.00
2022-09-16T15:31:35.236Z,100.00
2022-09-16T15:34:20.828Z,100.00
2022-09-16T15:36:51.863Z,100.00
2022-09-16T15:39:26.332Z,100.00
2022-09-16T15:42:12.043Z,100.00
2022-09-16T15:44:47.882Z,100.00
2022-09-16T15:47:21.509Z,100.00
2022-09-16T15:49:54.113Z,100.00
2022-09-16T15:52:23.276Z,100.00
2022-09-16T15:54:57.376Z,100.00
2022-09-16T15:57:34.243Z,100.00
2022-09-16T16:00:11.474Z,100.00
2022-09-16T16:02:51.606Z,100.00
2022-09-16T16:05:23.259Z,100.00
2022-09-16T16:07:54.380Z,100.00
2022-09-16T16:10:28.792Z,100.00
2022-09-16T16:12:59.601Z,100.00
2022-09-16T16:15:31.756Z,100.00
2022-09-16T16:18:04.400Z,100.00
2022-09-16T16:20:34.550Z,100.00
2022-09-16T16:23:04.032Z,100.00
2022-09-16T16:25:33.292Z,100.00
2022-09-16T16:28:02.747Z,100.00
2022-09-16T16:30:34.612Z,100.00
2022-09-16T16:33:08.526Z,100.00
2022-09-16T16:35:37.625Z,100.00
2022-09-16T16:38:08.479Z,100.00
2022-09-16T16:40:37.871Z,100.00
2022-09-16T16:43:09.483Z,100.00
2022-09-16T16:45:41.493Z,100.00
2022-09-16T16:48:11.890Z,100.00
2022-09-16T16:50:41.155Z,100.00
2022-09-16T16:53:10.337Z,100.00
2022-09-16T16:55:39.930Z,100.00
2022-09-16T16:58:11.570Z,100.00
2022-09-16T17:00:40.649Z,100.00
2022-09-16T17:03:11.293Z,100.00
2022-09-16T17:05:40.331Z,100.00
2022-09-16T17:08:09.786Z,100.00
2022-09-16T17:10:42.910Z,100.00
2022-09-16T17:13:12.381Z,100.00
2022-09-16T17:15:42.089Z,100.00
2022-09-16T17:18:12.488Z,100.00
2022-09-16T17:20:41.958Z,100.00
2022-09-16T17:23:11.143Z,100.00
2022-09-16T17:25:40.527Z,100.00
2022-09-16T17:28:10.162Z,100.00
2022-09-16T17:30:43.501Z,100.00
2022-09-16T17:33:14.228Z,100.00
2022-09-16T17:35:43.888Z,100.00
2022-09-16T17:38:13.138Z,100.00
2022-09-16T17:40:42.392Z,100.00
2022-09-16T17:43:11.464Z,100.00
2022-09-16T17:45:40.415Z,100.00
2022-09-16T17:48:09.680Z,100.00
2022-09-16T17:50:43.654Z,100.00
2022-09-16T17:53:13.131Z,100.00
2022-09-16T17:55:42.288Z,100.00
2022-09-16T17:58:13.589Z,100.00
2022-09-16T18:00:43.507Z,100.00
2022-09-16T18:03:16.519Z,100.00
2022-09-16T18:05:47.086Z,100.00
2022-09-16T18:08:16.363Z,100.00
2022-09-16T18:10:45.350Z,100.00
2022-09-16T18:13:14.644Z,100.00
2022-09-16T18:15:43.958Z,100.00
2022-09-16T18:18:14.936Z,100.00
2022-09-16T18:20:44.171Z,100.00
2022-09-16T18:23:15.868Z,100.00
2022-09-16T18:25:45.046Z,100.00
2022-09-16T18:28:16.293Z,100.00
2022-09-16T18:30:45.426Z,100.00
2022-09-16T18:33:14.719Z,100.00
2022-09-16T18:35:43.902Z,100.00
2022-09-16T18:38:14.478Z,100.00
2022-09-16T18:40:43.623Z,100.00
2022-09-16T18:43:12.808Z,100.00
2022-09-16T18:45:41.843Z,100.00
2022-09-16T18:48:11.613Z,100.00
2022-09-16T18:50:40.668Z,100.00
2022-09-16T18:53:09.789Z,100.00
2022-09-16T18:55:40.030Z,100.00
2022-09-16T18:58:09.332Z,100.00
2022-09-16T19:00:38.264Z,100.00
2022-09-16T19:03:07.492Z,100.00
2022-09-16T19:05:37.065Z,100.00
2022-09-16T19:08:06.747Z,100.00
2022-09-16T19:10:36.313Z,100.00
2022-09-16T19:13:08.763Z,100.00
2022-09-16T19:15:41.334Z,100.00
2022-09-16T19:18:12.470Z,100.00
2022-09-16T19:20:46.469Z,100.00
2022-09-16T19:23:16.405Z,100.00
2022-09-16T19:25:45.536Z,100.00
2022-09-16T19:28:20.214Z,100.00
2022-09-16T19:30:49.867Z,100.00
2022-09-16T19:33:18.824Z,100.00
2022-09-16T19:35:48.410Z,100.00
2022-09-16T19:38:17.751Z,100.00
2022-09-16T19:40:46.715Z,100.00
2022-09-16T19:43:17.704Z,100.00
2022-09-16T19:45:48.235Z,100.00
2022-09-16T19:48:17.511Z,100.00
2022-09-16T19:50:53.284Z,100.00
2022-09-16T19:53:22.444Z,100.00
2022-09-16T19:55:56.833Z,100.00
2022-09-16T19:58:28.029Z,100.00
2022-09-16T20:01:02.319Z,100.00
2022-09-16T20:03:33.676Z,100.00
2022-09-16T20:06:04.676Z,100.00
2022-09-16T20:08:40.112Z,100.00
2022-09-16T20:11:11.073Z,100.00
2022-09-16T20:13:41.900Z,100.00
2022-09-16T20:16:11.582Z,100.00
2022-09-16T20:18:40.674Z,100.00
2022-09-16T20:21:13.413Z,100.00
2022-09-16T20:23:45.180Z,100.00
2022-09-16T20:26:19.566Z,100.00
2022-09-16T20:28:54.501Z,100.00
2022-09-16T20:31:25.724Z,100.00
2022-09-16T20:33:57.686Z,100.00
2022-09-16T20:36:30.622Z,100.00
2022-09-16T20:39:01.279Z,100.00
2022-09-16T20:41:33.239Z,100.00
2022-09-16T20:44:05.196Z,100.00
2022-09-16T20:46:36.401Z,100.00
2022-09-16T20:49:10.386Z,100.00
2022-09-16T20:51:39.864Z,100.00
2022-09-16T20:54:11.295Z,100.00
2022-09-16T20:56:42.811Z,100.00
2022-09-16T20:59:16.363Z,100.00
2022-09-16T21:01:48.300Z,100.00
2022-09-16T21:04:20.490Z,100.00
2022-09-16T21:06:50.416Z,100.00
2022-09-16T21:09:19.583Z,100.00
2022-09-16T21:11:51.479Z,100.00
2022-09-16T21:14:22.648Z,100.00
2022-09-16T21:16:52.598Z,100.00
2022-09-16T21:19:24.155Z,100.00
2022-09-16T21:21:56.657Z,100.00
2022-09-16T21:24:25.666Z,100.00
2022-09-16T21:26:55.342Z,100.00
2022-09-16T21:29:25.785Z,100.00
2022-09-16T21:31:56.442Z,100.00
2022-09-16T21:34:25.706Z,100.00
2022-09-16T21:36:58.722Z,100.00
2022-09-16T21:39:30.431Z,100.00
2022-09-16T21:42:00.074Z,100.00
2022-09-16T21:44:30.396Z,100.00
2022-09-16T21:46:59.384Z,100.00
2022-09-16T21:49:30.420Z,100.00
2022-09-16T21:52:00.605Z,100.00
2022-09-16T21:54:31.155Z,100.00
2022-09-16T21:57:00.702Z,100.00
2022-09-16T21:59:34.094Z,100.00
2022-09-16T22:02:03.985Z,100.00
2022-09-16T22:04:33.349Z,100.00
2022-09-16T22:07:02.415Z,100.00
2022-09-16T22:09:31.589Z,100.00
2022-09-16T22:12:01.499Z,100.00
2022-09-16T22:14:30.882Z,100.00
2022-09-16T22:17:01.236Z,100.00
2022-09-16T22:19:30.260Z,100.00
2022-09-16T22:21:59.201Z,100.00
2022-09-16T22:24:28.216Z,100.00
2022-09-16T22:26:57.125Z,100.00
2022-09-16T22:29:26.205Z,100.00
2022-09-16T22:31:55.233Z,100.00
2022-09-16T22:34:25.565Z,100.00
2022-09-16T22:36:54.491Z,100.00
2022-09-16T22:39:23.533Z,100.00
2022-09-16T22:41:52.549Z,100.00
2022-09-16T22:44:21.470Z,100.00
2022-09-16T22:46:50.485Z,100.00
2022-09-16T22:49:19.466Z,100.00
2022-09-16T22:51:49.750Z,100.00
2022-09-16T22:54:18.728Z,100.00
2022-09-16T22:56:47.670Z,100.00
2022-09-16T22:59:19.467Z,100.00
2022-09-16T23:01:49.022Z,100.00
2022-09-16T23:04:18.353Z,100.00
2022-09-16T23:06:48.763Z,100.00
2022-09-16T23:09:18.095Z,100.00
2022-09-16T23:11:47.219Z,100.00
2022-09-16T23:14:20.736Z,100.00
2022-09-16T23:16:50.090Z,100.00
2022-09-16T23:19:19.201Z,100.00
2022-09-16T23:21:50.548Z,100.00
2022-09-16T23:24:21.205Z,100.00
2022-09-16T23:26:50.296Z,100.00
2022-09-16T23:29:19.667Z,100.00
2022-09-16T23:31:48.747Z,100.00
2022-09-16T23:34:20.173Z,100.00
2022-09-16T23:36:51.420Z,100.00
2022-09-16T23:39:20.561Z,100.00
2022-09-16T23:41:51.309Z,100.00
2022-09-16T23:44:22.311Z,100.00
2022-09-16T23:46:51.371Z,100.00
2022-09-16T23:49:20.395Z,100.00
2022-09-16T23:51:50.742Z,100.00
2022-09-16T23:54:20.135Z,100.00
2022-09-16T23:56:49.145Z,100.00
2022-09-16T23:59:18.391Z,100.00
